sensor_id;sensor_type;location;lat;lon;timestamp;P1;durP1;ratioP1;P2;durP2;ratioP2
68579;SDS011;55555;52.136;5.424;2022-12-18T00:01:20;69.30;;;22.08;;
68579;SDS011;55555;52.136;5.424;2022-12-18T00:03:51;70.57;;;21.60;;
68579;SDS011;55555;52.136;5.424;2022-12-18T00:06:19;70.95;;;22.38;;
68579;SDS011;55555;52.136;5.424;2022-12-18T00:08:48;68.55;;;21.80;;
68579;SDS011;55555;52.136;5.424;2022-12-18T00:11:16;70.50;;;21.55;;
68579;SDS011;55555;52.136;5.424;2022-12-18T00:13:46;69.25;;;21.40;;
68579;SDS011;55555;52.136;5.424;2022-12-18T00:16:15;65.80;;;20.60;;
68579;SDS011;55555;52.136;5.424;2022-12-18T00:18:47;65.95;;;20.98;;
68579;SDS011;55555;52.136;5.424;2022-12-18T00:21:16;70.20;;;22.75;;
68579;SDS011;55555;52.136;5.424;2022-12-18T00:23:43;78.43;;;23.23;;
68579;SDS011;55555;52.136;5.424;2022-12-18T00:26:19;78.05;;;23.23;;
68579;SDS011;55555;52.136;5.424;2022-12-18T00:28:59;75.77;;;22.43;;
68579;SDS011;55555;52.136;5.424;2022-12-18T00:31:30;80.07;;;21.38;;
68579;SDS011;55555;52.136;5.424;2022-12-18T00:33:59;81.85;;;24.42;;
68579;SDS011;55555;52.136;5.424;2022-12-18T00:36:31;86.10;;;24.77;;
68579;SDS011;55555;52.136;5.424;2022-12-18T00:39:02;80.10;;;23.42;;
68579;SDS011;55555;52.136;5.424;2022-12-18T00:41:30;89.33;;;25.40;;
68579;SDS011;55555;52.136;5.424;2022-12-18T00:44:17;79.32;;;23.23;;
68579;SDS011;55555;52.136;5.424;2022-12-18T00:46:45;79.00;;;23.38;;
68579;SDS011;55555;52.136;5.424;2022-12-18T00:49:15;81.15;;;24.73;;
68579;SDS011;55555;52.136;5.424;2022-12-18T00:51:46;81.32;;;23.42;;
68579;SDS011;55555;52.136;5.424;2022-12-18T00:54:14;74.43;;;22.50;;
68579;SDS011;55555;52.136;5.424;2022-12-18T00:56:41;90.03;;;25.23;;
68579;SDS011;55555;52.136;5.424;2022-12-18T00:59:16;76.95;;;22.85;;
68579;SDS011;55555;52.136;5.424;2022-12-18T01:01:44;79.68;;;23.23;;
68579;SDS011;55555;52.136;5.424;2022-12-18T01:04:13;74.20;;;23.75;;
68579;SDS011;55555;52.136;5.424;2022-12-18T01:06:44;83.77;;;24.50;;
68579;SDS011;55555;52.136;5.424;2022-12-18T01:09:11;75.13;;;22.60;;
68579;SDS011;55555;52.136;5.424;2022-12-18T01:11:38;80.88;;;23.35;;
68579;SDS011;55555;52.136;5.424;2022-12-18T01:14:05;70.72;;;20.90;;
68579;SDS011;55555;52.136;5.424;2022-12-18T01:16:32;79.75;;;22.90;;
68579;SDS011;55555;52.136;5.424;2022-12-18T01:18:59;79.80;;;22.67;;
68579;SDS011;55555;52.136;5.424;2022-12-18T01:21:26;80.38;;;23.75;;
68579;SDS011;55555;52.136;5.424;2022-12-18T01:23:54;77.72;;;24.25;;
68579;SDS011;55555;52.136;5.424;2022-12-18T01:26:23;77.82;;;23.55;;
68579;SDS011;55555;52.136;5.424;2022-12-18T01:28:53;84.32;;;23.65;;
68579;SDS011;55555;52.136;5.424;2022-12-18T01:31:23;86.00;;;23.97;;
68579;SDS011;55555;52.136;5.424;2022-12-18T01:33:53;76.88;;;24.67;;
68579;SDS011;55555;52.136;5.424;2022-12-18T01:36:23;78.82;;;24.40;;
68579;SDS011;55555;52.136;5.424;2022-12-18T01:38:53;72.30;;;22.85;;
68579;SDS011;55555;52.136;5.424;2022-12-18T01:41:23;77.03;;;23.45;;
68579;SDS011;55555;52.136;5.424;2022-12-18T01:43:53;76.43;;;23.80;;
68579;SDS011;55555;52.136;5.424;2022-12-18T01:46:26;79.45;;;23.40;;
68579;SDS011;55555;52.136;5.424;2022-12-18T01:48:56;78.57;;;23.02;;
68579;SDS011;55555;52.136;5.424;2022-12-18T01:51:26;80.15;;;23.75;;
68579;SDS011;55555;52.136;5.424;2022-12-18T01:53:56;83.20;;;23.42;;
68579;SDS011;55555;52.136;5.424;2022-12-18T01:56:24;80.90;;;23.00;;
68579;SDS011;55555;52.136;5.424;2022-12-18T01:58:56;74.93;;;23.42;;
68579;SDS011;55555;52.136;5.424;2022-12-18T02:01:29;78.65;;;24.38;;
68579;SDS011;55555;52.136;5.424;2022-12-18T02:06:56;76.78;;;22.27;;
68579;SDS011;55555;52.136;5.424;2022-12-18T02:09:36;71.83;;;23.40;;
68579;SDS011;55555;52.136;5.424;2022-12-18T02:18:11;72.05;;;21.38;;
68579;SDS011;55555;52.136;5.424;2022-12-18T02:21:00;75.97;;;23.55;;
68579;SDS011;55555;52.136;5.424;2022-12-18T02:26:52;70.68;;;22.08;;
68579;SDS011;55555;52.136;5.424;2022-12-18T02:29:31;72.05;;;22.75;;
68579;SDS011;55555;52.136;5.424;2022-12-18T02:32:06;75.43;;;24.15;;
68579;SDS011;55555;52.136;5.424;2022-12-18T02:34:39;82.15;;;24.15;;
68579;SDS011;55555;52.136;5.424;2022-12-18T02:37:12;81.00;;;23.70;;
68579;SDS011;55555;52.136;5.424;2022-12-18T02:39:44;71.90;;;22.90;;
68579;SDS011;55555;52.136;5.424;2022-12-18T02:42:14;73.07;;;22.30;;
68579;SDS011;55555;52.136;5.424;2022-12-18T02:44:44;74.55;;;23.23;;
68579;SDS011;55555;52.136;5.424;2022-12-18T02:47:20;72.18;;;23.38;;
68579;SDS011;55555;52.136;5.424;2022-12-18T02:53:20;70.50;;;22.48;;
68579;SDS011;55555;52.136;5.424;2022-12-18T03:04:43;68.20;;;22.60;;
68579;SDS011;55555;52.136;5.424;2022-12-18T03:07:33;61.97;;;21.33;;
68579;SDS011;55555;52.136;5.424;2022-12-18T03:10:29;64.95;;;21.48;;
68579;SDS011;55555;52.136;5.424;2022-12-18T03:13:05;68.55;;;21.35;;
68579;SDS011;55555;52.136;5.424;2022-12-18T03:15:41;70.65;;;22.98;;
68579;SDS011;55555;52.136;5.424;2022-12-18T03:18:17;60.53;;;20.73;;
68579;SDS011;55555;52.136;5.424;2022-12-18T03:20:53;65.15;;;20.65;;
68579;SDS011;55555;52.136;5.424;2022-12-18T03:23:28;67.05;;;21.08;;
68579;SDS011;55555;52.136;5.424;2022-12-18T03:26:03;61.47;;;21.52;;
68579;SDS011;55555;52.136;5.424;2022-12-18T03:28:38;64.82;;;22.15;;
68579;SDS011;55555;52.136;5.424;2022-12-18T03:31:18;67.53;;;21.97;;
68579;SDS011;55555;52.136;5.424;2022-12-18T03:33:53;61.30;;;20.92;;
68579;SDS011;55555;52.136;5.424;2022-12-18T03:36:34;60.00;;;20.48;;
68579;SDS011;55555;52.136;5.424;2022-12-18T03:39:01;66.43;;;20.70;;
68579;SDS011;55555;52.136;5.424;2022-12-18T03:41:39;56.00;;;20.48;;
68579;SDS011;55555;52.136;5.424;2022-12-18T03:44:38;60.07;;;20.87;;
68579;SDS011;55555;52.136;5.424;2022-12-18T03:47:46;59.30;;;19.83;;
68579;SDS011;55555;52.136;5.424;2022-12-18T03:50:34;56.28;;;19.73;;
68579;SDS011;55555;52.136;5.424;2022-12-18T03:56:36;58.70;;;20.35;;
68579;SDS011;55555;52.136;5.424;2022-12-18T03:59:09;58.33;;;20.93;;
68579;SDS011;55555;52.136;5.424;2022-12-18T04:01:42;58.83;;;19.65;;
68579;SDS011;55555;52.136;5.424;2022-12-18T04:04:14;53.83;;;20.55;;
68579;SDS011;55555;52.136;5.424;2022-12-18T04:06:43;51.13;;;19.80;;
68579;SDS011;55555;52.136;5.424;2022-12-18T04:09:13;51.75;;;19.77;;
68579;SDS011;55555;52.136;5.424;2022-12-18T04:11:45;58.60;;;19.83;;
68579;SDS011;55555;52.136;5.424;2022-12-18T04:14:14;50.00;;;18.73;;
68579;SDS011;55555;52.136;5.424;2022-12-18T04:16:46;47.83;;;18.73;;
68579;SDS011;55555;52.136;5.424;2022-12-18T04:19:16;51.05;;;19.23;;
68579;SDS011;55555;52.136;5.424;2022-12-18T04:21:46;51.65;;;19.30;;
68579;SDS011;55555;52.136;5.424;2022-12-18T04:24:13;49.40;;;19.33;;
68579;SDS011;55555;52.136;5.424;2022-12-18T04:26:49;46.63;;;17.73;;
68579;SDS011;55555;52.136;5.424;2022-12-18T04:29:22;42.78;;;17.80;;
68579;SDS011;55555;52.136;5.424;2022-12-18T04:31:49;47.38;;;18.10;;
68579;SDS011;55555;52.136;5.424;2022-12-18T04:34:18;45.17;;;16.83;;
68579;SDS011;55555;52.136;5.424;2022-12-18T04:36:49;50.33;;;18.13;;
68579;SDS011;55555;52.136;5.424;2022-12-18T04:39:16;48.88;;;18.33;;
68579;SDS011;55555;52.136;5.424;2022-12-18T04:41:44;43.30;;;16.30;;
68579;SDS011;55555;52.136;5.424;2022-12-18T04:44:12;37.72;;;15.45;;
68579;SDS011;55555;52.136;5.424;2022-12-18T04:46:39;45.10;;;17.08;;
68579;SDS011;55555;52.136;5.424;2022-12-18T04:49:06;40.20;;;15.90;;
68579;SDS011;55555;52.136;5.424;2022-12-18T04:51:33;43.80;;;16.58;;
68579;SDS011;55555;52.136;5.424;2022-12-18T04:54:01;43.20;;;16.80;;
68579;SDS011;55555;52.136;5.424;2022-12-18T04:56:28;44.25;;;16.67;;
68579;SDS011;55555;52.136;5.424;2022-12-18T04:58:57;43.53;;;16.95;;
68579;SDS011;55555;52.136;5.424;2022-12-18T05:01:24;41.40;;;16.30;;
68579;SDS011;55555;52.136;5.424;2022-12-18T05:03:59;41.30;;;16.10;;
68579;SDS011;55555;52.136;5.424;2022-12-18T05:06:27;41.20;;;16.55;;
68579;SDS011;55555;52.136;5.424;2022-12-18T05:08:55;38.25;;;15.43;;
68579;SDS011;55555;52.136;5.424;2022-12-18T05:11:22;39.42;;;16.13;;
68579;SDS011;55555;52.136;5.424;2022-12-18T05:13:49;39.10;;;15.73;;
68579;SDS011;55555;52.136;5.424;2022-12-18T05:16:16;39.50;;;15.65;;
68579;SDS011;55555;52.136;5.424;2022-12-18T05:18:43;42.95;;;16.60;;
68579;SDS011;55555;52.136;5.424;2022-12-18T05:21:11;42.13;;;14.85;;
68579;SDS011;55555;52.136;5.424;2022-12-18T05:23:39;37.15;;;15.30;;
68579;SDS011;55555;52.136;5.424;2022-12-18T05:26:06;41.63;;;15.43;;
68579;SDS011;55555;52.136;5.424;2022-12-18T05:28:34;36.22;;;14.93;;
68579;SDS011;55555;52.136;5.424;2022-12-18T05:31:03;33.15;;;13.90;;
68579;SDS011;55555;52.136;5.424;2022-12-18T05:33:32;37.05;;;15.07;;
68579;SDS011;55555;52.136;5.424;2022-12-18T05:36:02;36.90;;;14.80;;
68579;SDS011;55555;52.136;5.424;2022-12-18T05:38:33;40.13;;;14.53;;
68579;SDS011;55555;52.136;5.424;2022-12-18T05:41:02;33.30;;;14.60;;
68579;SDS011;55555;52.136;5.424;2022-12-18T05:43:30;36.53;;;13.90;;
68579;SDS011;55555;52.136;5.424;2022-12-18T05:45:57;37.63;;;14.95;;
68579;SDS011;55555;52.136;5.424;2022-12-18T05:48:33;34.95;;;14.07;;
68579;SDS011;55555;52.136;5.424;2022-12-18T05:51:07;37.27;;;14.60;;
68579;SDS011;55555;52.136;5.424;2022-12-18T05:53:37;35.03;;;13.50;;
68579;SDS011;55555;52.136;5.424;2022-12-18T05:56:09;35.83;;;14.02;;
68579;SDS011;55555;52.136;5.424;2022-12-18T05:58:40;33.50;;;14.05;;
68579;SDS011;55555;52.136;5.424;2022-12-18T06:01:09;37.22;;;14.68;;
68579;SDS011;55555;52.136;5.424;2022-12-18T06:03:40;35.27;;;14.27;;
68579;SDS011;55555;52.136;5.424;2022-12-18T06:06:15;35.25;;;13.95;;
68579;SDS011;55555;52.136;5.424;2022-12-18T06:08:53;35.33;;;13.80;;
68579;SDS011;55555;52.136;5.424;2022-12-18T06:11:22;39.08;;;14.45;;
68579;SDS011;55555;52.136;5.424;2022-12-18T06:13:52;32.90;;;14.27;;
68579;SDS011;55555;52.136;5.424;2022-12-18T06:16:24;33.33;;;13.77;;
68579;SDS011;55555;52.136;5.424;2022-12-18T06:18:55;35.47;;;13.65;;
68579;SDS011;55555;52.136;5.424;2022-12-18T06:21:27;39.50;;;15.02;;
68579;SDS011;55555;52.136;5.424;2022-12-18T06:23:55;37.38;;;13.98;;
68579;SDS011;55555;52.136;5.424;2022-12-18T06:26:22;32.05;;;13.85;;
68579;SDS011;55555;52.136;5.424;2022-12-18T06:28:53;38.03;;;14.57;;
68579;SDS011;55555;52.136;5.424;2022-12-18T06:31:21;39.88;;;14.25;;
68579;SDS011;55555;52.136;5.424;2022-12-18T06:33:48;33.08;;;13.68;;
68579;SDS011;55555;52.136;5.424;2022-12-18T06:36:15;34.97;;;13.32;;
68579;SDS011;55555;52.136;5.424;2022-12-18T06:38:43;36.78;;;14.27;;
68579;SDS011;55555;52.136;5.424;2022-12-18T06:41:11;35.47;;;13.73;;
68579;SDS011;55555;52.136;5.424;2022-12-18T06:43:42;35.63;;;13.95;;
68579;SDS011;55555;52.136;5.424;2022-12-18T06:46:10;35.95;;;14.15;;
68579;SDS011;55555;52.136;5.424;2022-12-18T06:48:38;35.58;;;14.07;;
68579;SDS011;55555;52.136;5.424;2022-12-18T06:51:05;39.08;;;15.63;;
68579;SDS011;55555;52.136;5.424;2022-12-18T06:53:33;38.63;;;14.37;;
68579;SDS011;55555;52.136;5.424;2022-12-18T06:56:04;40.92;;;15.80;;
68579;SDS011;55555;52.136;5.424;2022-12-18T06:58:35;35.70;;;14.00;;
68579;SDS011;55555;52.136;5.424;2022-12-18T07:01:05;33.35;;;13.70;;
68579;SDS011;55555;52.136;5.424;2022-12-18T07:03:34;31.30;;;13.80;;
68579;SDS011;55555;52.136;5.424;2022-12-18T07:06:03;31.23;;;14.07;;
68579;SDS011;55555;52.136;5.424;2022-12-18T07:08:31;46.33;;;17.63;;
68579;SDS011;55555;52.136;5.424;2022-12-18T07:10:58;48.08;;;18.67;;
68579;SDS011;55555;52.136;5.424;2022-12-18T07:13:30;45.22;;;19.10;;
68579;SDS011;55555;52.136;5.424;2022-12-18T07:16:14;45.28;;;20.65;;
68579;SDS011;55555;52.136;5.424;2022-12-18T07:18:51;35.97;;;14.63;;
68579;SDS011;55555;52.136;5.424;2022-12-18T07:21:19;35.00;;;15.27;;
68579;SDS011;55555;52.136;5.424;2022-12-18T07:23:47;39.83;;;15.35;;
68579;SDS011;55555;52.136;5.424;2022-12-18T07:26:16;38.20;;;14.57;;
68579;SDS011;55555;52.136;5.424;2022-12-18T07:28:46;33.60;;;14.10;;
68579;SDS011;55555;52.136;5.424;2022-12-18T07:31:15;34.73;;;13.67;;
68579;SDS011;55555;52.136;5.424;2022-12-18T07:33:47;34.75;;;13.07;;
68579;SDS011;55555;52.136;5.424;2022-12-18T07:36:14;41.15;;;15.10;;
68579;SDS011;55555;52.136;5.424;2022-12-18T07:38:42;33.05;;;14.55;;
68579;SDS011;55555;52.136;5.424;2022-12-18T07:41:10;36.17;;;15.20;;
68579;SDS011;55555;52.136;5.424;2022-12-18T07:43:39;35.37;;;16.20;;
68579;SDS011;55555;52.136;5.424;2022-12-18T07:46:08;35.65;;;14.32;;
68579;SDS011;55555;52.136;5.424;2022-12-18T07:48:38;31.83;;;14.48;;
68579;SDS011;55555;52.136;5.424;2022-12-18T07:51:06;32.15;;;14.18;;
68579;SDS011;55555;52.136;5.424;2022-12-18T07:53:37;34.47;;;13.38;;
68579;SDS011;55555;52.136;5.424;2022-12-18T07:56:06;38.07;;;14.20;;
68579;SDS011;55555;52.136;5.424;2022-12-18T07:58:53;34.90;;;13.73;;
68579;SDS011;55555;52.136;5.424;2022-12-18T08:01:21;32.95;;;14.30;;
68579;SDS011;55555;52.136;5.424;2022-12-18T08:03:48;35.85;;;14.02;;
68579;SDS011;55555;52.136;5.424;2022-12-18T08:06:17;32.75;;;14.85;;
68579;SDS011;55555;52.136;5.424;2022-12-18T08:08:53;33.97;;;14.97;;
68579;SDS011;55555;52.136;5.424;2022-12-18T08:11:22;34.78;;;14.90;;
68579;SDS011;55555;52.136;5.424;2022-12-18T08:13:51;39.65;;;15.98;;
68579;SDS011;55555;52.136;5.424;2022-12-18T08:16:19;37.47;;;17.08;;
68579;SDS011;55555;52.136;5.424;2022-12-18T08:18:48;42.67;;;20.08;;
68579;SDS011;55555;52.136;5.424;2022-12-18T08:21:16;44.23;;;19.13;;
68579;SDS011;55555;52.136;5.424;2022-12-18T08:23:50;38.40;;;16.20;;
68579;SDS011;55555;52.136;5.424;2022-12-18T08:26:19;35.60;;;16.15;;
68579;SDS011;55555;52.136;5.424;2022-12-18T08:28:48;35.88;;;14.90;;
68579;SDS011;55555;52.136;5.424;2022-12-18T08:31:18;39.85;;;18.45;;
68579;SDS011;55555;52.136;5.424;2022-12-18T08:33:48;65.97;;;30.07;;
68579;SDS011;55555;52.136;5.424;2022-12-18T08:36:17;54.67;;;24.83;;
68579;SDS011;55555;52.136;5.424;2022-12-18T08:38:46;42.67;;;19.77;;
68579;SDS011;55555;52.136;5.424;2022-12-18T08:41:14;66.25;;;31.30;;
68579;SDS011;55555;52.136;5.424;2022-12-18T08:43:42;46.53;;;22.88;;
68579;SDS011;55555;52.136;5.424;2022-12-18T08:46:31;51.20;;;25.97;;
68579;SDS011;55555;52.136;5.424;2022-12-18T08:49:02;43.17;;;18.48;;
68579;SDS011;55555;52.136;5.424;2022-12-18T08:51:31;42.53;;;20.77;;
68579;SDS011;55555;52.136;5.424;2022-12-18T08:53:59;57.67;;;27.95;;
68579;SDS011;55555;52.136;5.424;2022-12-18T08:56:27;53.13;;;24.95;;
68579;SDS011;55555;52.136;5.424;2022-12-18T08:58:56;39.67;;;18.00;;
68579;SDS011;55555;52.136;5.424;2022-12-18T09:01:23;40.85;;;17.60;;
68579;SDS011;55555;52.136;5.424;2022-12-18T09:03:51;37.03;;;17.42;;
68579;SDS011;55555;52.136;5.424;2022-12-18T09:06:18;41.60;;;19.90;;
68579;SDS011;55555;52.136;5.424;2022-12-18T09:08:47;42.97;;;19.00;;
68579;SDS011;55555;52.136;5.424;2022-12-18T09:11:25;43.33;;;18.53;;
68579;SDS011;55555;52.136;5.424;2022-12-18T09:13:55;42.15;;;18.48;;
68579;SDS011;55555;52.136;5.424;2022-12-18T09:16:23;49.80;;;21.75;;
68579;SDS011;55555;52.136;5.424;2022-12-18T09:18:57;48.92;;;22.15;;
68579;SDS011;55555;52.136;5.424;2022-12-18T09:21:27;45.30;;;19.90;;
68579;SDS011;55555;52.136;5.424;2022-12-18T09:23:58;32.80;;;15.97;;
68579;SDS011;55555;52.136;5.424;2022-12-18T09:26:25;36.22;;;15.45;;
68579;SDS011;55555;52.136;5.424;2022-12-18T09:28:53;34.47;;;16.42;;
68579;SDS011;55555;52.136;5.424;2022-12-18T09:31:22;28.35;;;14.23;;
68579;SDS011;55555;52.136;5.424;2022-12-18T09:33:50;34.30;;;15.07;;
68579;SDS011;55555;52.136;5.424;2022-12-18T09:36:18;41.10;;;19.23;;
68579;SDS011;55555;52.136;5.424;2022-12-18T09:38:46;46.97;;;22.45;;
68579;SDS011;55555;52.136;5.424;2022-12-18T09:41:17;42.10;;;20.20;;
68579;SDS011;55555;52.136;5.424;2022-12-18T09:43:53;34.25;;;15.18;;
68579;SDS011;55555;52.136;5.424;2022-12-18T09:46:30;37.72;;;19.35;;
68579;SDS011;55555;52.136;5.424;2022-12-18T09:49:07;41.67;;;18.90;;
68579;SDS011;55555;52.136;5.424;2022-12-18T09:51:45;40.80;;;18.60;;
68579;SDS011;55555;52.136;5.424;2022-12-18T09:54:21;42.60;;;21.63;;
68579;SDS011;55555;52.136;5.424;2022-12-18T09:57:01;36.05;;;17.02;;
68579;SDS011;55555;52.136;5.424;2022-12-18T09:59:30;39.33;;;17.85;;
68579;SDS011;55555;52.136;5.424;2022-12-18T10:05:01;44.08;;;20.63;;
68579;SDS011;55555;52.136;5.424;2022-12-18T10:13:24;36.33;;;17.63;;
68579;SDS011;55555;52.136;5.424;2022-12-18T10:16:08;37.00;;;17.07;;
68579;SDS011;55555;52.136;5.424;2022-12-18T10:19:15;35.20;;;15.65;;
68579;SDS011;55555;52.136;5.424;2022-12-18T10:22:24;36.60;;;17.75;;
68579;SDS011;55555;52.136;5.424;2022-12-18T10:28:17;49.15;;;21.60;;
68579;SDS011;55555;52.136;5.424;2022-12-18T10:30:46;112.63;;;42.70;;
68579;SDS011;55555;52.136;5.424;2022-12-18T10:33:18;47.90;;;21.00;;
68579;SDS011;55555;52.136;5.424;2022-12-18T10:35:49;44.40;;;19.63;;
68579;SDS011;55555;52.136;5.424;2022-12-18T10:38:22;57.30;;;22.60;;
68579;SDS011;55555;52.136;5.424;2022-12-18T10:43:38;61.90;;;27.63;;
68579;SDS011;55555;52.136;5.424;2022-12-18T10:48:35;62.67;;;28.35;;
68579;SDS011;55555;52.136;5.424;2022-12-18T10:53:57;56.45;;;23.98;;
68579;SDS011;55555;52.136;5.424;2022-12-18T10:56:29;38.73;;;17.70;;
68579;SDS011;55555;52.136;5.424;2022-12-18T10:59:01;120.45;;;39.83;;
68579;SDS011;55555;52.136;5.424;2022-12-18T11:04:26;43.78;;;17.63;;
68579;SDS011;55555;52.136;5.424;2022-12-18T11:09:30;23.47;;;10.30;;
68579;SDS011;55555;52.136;5.424;2022-12-18T11:12:03;26.88;;;11.82;;
68579;SDS011;55555;52.136;5.424;2022-12-18T11:14:42;27.00;;;12.07;;
68579;SDS011;55555;52.136;5.424;2022-12-18T11:17:19;19.92;;;9.88;;
68579;SDS011;55555;52.136;5.424;2022-12-18T11:19:54;29.73;;;15.00;;
68579;SDS011;55555;52.136;5.424;2022-12-18T11:22:31;34.10;;;15.50;;
68579;SDS011;55555;52.136;5.424;2022-12-18T11:25:02;25.95;;;12.65;;
68579;SDS011;55555;52.136;5.424;2022-12-18T11:28:05;22.90;;;11.05;;
68579;SDS011;55555;52.136;5.424;2022-12-18T11:36:55;42.47;;;16.97;;
68579;SDS011;55555;52.136;5.424;2022-12-18T11:39:36;127.72;;;40.45;;
68579;SDS011;55555;52.136;5.424;2022-12-18T11:42:19;105.80;;;33.60;;
68579;SDS011;55555;52.136;5.424;2022-12-18T11:47:40;79.05;;;23.40;;
68579;SDS011;55555;52.136;5.424;2022-12-18T11:53:03;41.20;;;17.52;;
68579;SDS011;55555;52.136;5.424;2022-12-18T12:12:39;26.17;;;12.98;;
68579;SDS011;55555;52.136;5.424;2022-12-18T12:28:33;23.30;;;12.07;;
68579;SDS011;55555;52.136;5.424;2022-12-18T12:39:46;26.70;;;13.27;;
68579;SDS011;55555;52.136;5.424;2022-12-18T12:42:29;27.50;;;11.32;;
68579;SDS011;55555;52.136;5.424;2022-12-18T12:45:28;36.20;;;17.00;;
68579;SDS011;55555;52.136;5.424;2022-12-18T12:48:05;37.70;;;15.13;;
68579;SDS011;55555;52.136;5.424;2022-12-18T12:50:42;50.05;;;19.77;;
68579;SDS011;55555;52.136;5.424;2022-12-18T12:53:14;62.70;;;22.00;;
68579;SDS011;55555;52.136;5.424;2022-12-18T12:55:52;112.40;;;35.25;;
68579;SDS011;55555;52.136;5.424;2022-12-18T13:06:46;55.20;;;18.52;;
68579;SDS011;55555;52.136;5.424;2022-12-18T13:09:29;42.55;;;14.90;;
68579;SDS011;55555;52.136;5.424;2022-12-18T13:12:07;56.13;;;24.02;;
68579;SDS011;55555;52.136;5.424;2022-12-18T13:15:13;55.90;;;23.10;;
68579;SDS011;55555;52.136;5.424;2022-12-18T13:20:37;37.67;;;20.00;;
68579;SDS011;55555;52.136;5.424;2022-12-18T13:28:53;34.47;;;17.57;;
68579;SDS011;55555;52.136;5.424;2022-12-18T13:34:20;28.42;;;13.35;;
68579;SDS011;55555;52.136;5.424;2022-12-18T13:36:57;28.48;;;14.10;;
68579;SDS011;55555;52.136;5.424;2022-12-18T13:39:58;27.10;;;15.00;;
68579;SDS011;55555;52.136;5.424;2022-12-18T13:42:34;27.30;;;12.40;;
68579;SDS011;55555;52.136;5.424;2022-12-18T13:45:35;21.58;;;9.88;;
68579;SDS011;55555;52.136;5.424;2022-12-18T13:48:16;29.63;;;12.48;;
68579;SDS011;55555;52.136;5.424;2022-12-18T13:51:11;21.27;;;10.52;;
68579;SDS011;55555;52.136;5.424;2022-12-18T13:56:48;23.03;;;11.10;;
68579;SDS011;55555;52.136;5.424;2022-12-18T14:02:12;25.73;;;9.73;;
68579;SDS011;55555;52.136;5.424;2022-12-18T14:04:44;23.15;;;10.23;;
68579;SDS011;55555;52.136;5.424;2022-12-18T14:07:14;22.95;;;10.85;;
68579;SDS011;55555;52.136;5.424;2022-12-18T14:09:58;22.30;;;10.63;;
68579;SDS011;55555;52.136;5.424;2022-12-18T14:12:48;21.20;;;10.13;;
68579;SDS011;55555;52.136;5.424;2022-12-18T14:17:53;22.15;;;10.25;;
68579;SDS011;55555;52.136;5.424;2022-12-18T14:20:41;20.67;;;10.05;;
68579;SDS011;55555;52.136;5.424;2022-12-18T14:23:34;22.73;;;9.53;;
68579;SDS011;55555;52.136;5.424;2022-12-18T14:26:25;22.58;;;10.00;;
68579;SDS011;55555;52.136;5.424;2022-12-18T14:28:57;22.67;;;9.93;;
68579;SDS011;55555;52.136;5.424;2022-12-18T14:31:28;25.38;;;10.25;;
68579;SDS011;55555;52.136;5.424;2022-12-18T14:33:57;23.25;;;10.50;;
68579;SDS011;55555;52.136;5.424;2022-12-18T14:36:26;23.77;;;9.90;;
68579;SDS011;55555;52.136;5.424;2022-12-18T14:38:56;24.23;;;10.23;;
68579;SDS011;55555;52.136;5.424;2022-12-18T14:41:25;36.25;;;15.88;;
68579;SDS011;55555;52.136;5.424;2022-12-18T14:43:54;41.25;;;17.02;;
68579;SDS011;55555;52.136;5.424;2022-12-18T14:51:58;21.73;;;10.02;;
68579;SDS011;55555;52.136;5.424;2022-12-18T14:54:39;23.30;;;10.57;;
68579;SDS011;55555;52.136;5.424;2022-12-18T14:57:25;21.30;;;10.35;;
68579;SDS011;55555;52.136;5.424;2022-12-18T15:00:06;39.00;;;15.63;;
68579;SDS011;55555;52.136;5.424;2022-12-18T15:02:45;43.53;;;18.67;;
68579;SDS011;55555;52.136;5.424;2022-12-18T15:05:26;27.55;;;13.05;;
68579;SDS011;55555;52.136;5.424;2022-12-18T15:07:57;23.80;;;10.80;;
68579;SDS011;55555;52.136;5.424;2022-12-18T15:10:27;24.95;;;11.07;;
68579;SDS011;55555;52.136;5.424;2022-12-18T15:20:41;28.23;;;11.40;;
68579;SDS011;55555;52.136;5.424;2022-12-18T15:23:21;25.42;;;11.48;;
68579;SDS011;55555;52.136;5.424;2022-12-18T15:26:12;23.73;;;11.20;;
68579;SDS011;55555;52.136;5.424;2022-12-18T15:28:48;23.33;;;11.40;;
68579;SDS011;55555;52.136;5.424;2022-12-18T15:34:05;23.55;;;11.15;;
68579;SDS011;55555;52.136;5.424;2022-12-18T15:36:46;24.75;;;11.50;;
68579;SDS011;55555;52.136;5.424;2022-12-18T15:39:14;23.10;;;11.57;;
68579;SDS011;55555;52.136;5.424;2022-12-18T15:41:41;25.80;;;10.50;;
68579;SDS011;55555;52.136;5.424;2022-12-18T15:44:31;25.02;;;11.00;;
68579;SDS011;55555;52.136;5.424;2022-12-18T15:46:58;24.20;;;11.90;;
68579;SDS011;55555;52.136;5.424;2022-12-18T15:49:25;22.40;;;10.63;;
68579;SDS011;55555;52.136;5.424;2022-12-18T15:51:53;23.75;;;11.23;;
68579;SDS011;55555;52.136;5.424;2022-12-18T15:54:24;22.70;;;11.30;;
68579;SDS011;55555;52.136;5.424;2022-12-18T15:57:10;25.48;;;10.65;;
68579;SDS011;55555;52.136;5.424;2022-12-18T15:59:51;26.40;;;11.55;;
68579;SDS011;55555;52.136;5.424;2022-12-18T16:02:20;25.77;;;12.50;;
68579;SDS011;55555;52.136;5.424;2022-12-18T16:04:49;32.25;;;14.02;;
68579;SDS011;55555;52.136;5.424;2022-12-18T16:07:18;29.37;;;13.33;;
68579;SDS011;55555;52.136;5.424;2022-12-18T16:09:50;30.17;;;13.60;;
68579;SDS011;55555;52.136;5.424;2022-12-18T16:12:18;28.60;;;14.45;;
68579;SDS011;55555;52.136;5.424;2022-12-18T16:14:48;26.45;;;13.27;;
68579;SDS011;55555;52.136;5.424;2022-12-18T16:17:15;29.13;;;13.70;;
68579;SDS011;55555;52.136;5.424;2022-12-18T16:19:43;27.03;;;12.10;;
68579;SDS011;55555;52.136;5.424;2022-12-18T16:22:17;26.05;;;11.63;;
68579;SDS011;55555;52.136;5.424;2022-12-18T16:24:49;27.27;;;12.27;;
68579;SDS011;55555;52.136;5.424;2022-12-18T16:27:18;27.55;;;12.00;;
68579;SDS011;55555;52.136;5.424;2022-12-18T16:29:46;25.63;;;12.15;;
68579;SDS011;55555;52.136;5.424;2022-12-18T16:32:15;26.77;;;12.17;;
68579;SDS011;55555;52.136;5.424;2022-12-18T16:34:45;28.17;;;13.85;;
68579;SDS011;55555;52.136;5.424;2022-12-18T16:37:14;26.50;;;13.60;;
68579;SDS011;55555;52.136;5.424;2022-12-18T16:39:42;30.63;;;12.10;;
68579;SDS011;55555;52.136;5.424;2022-12-18T16:44:40;26.63;;;12.00;;
68579;SDS011;55555;52.136;5.424;2022-12-18T16:47:08;24.63;;;12.20;;
68579;SDS011;55555;52.136;5.424;2022-12-18T16:49:40;30.42;;;12.48;;
68579;SDS011;55555;52.136;5.424;2022-12-18T16:52:08;27.17;;;13.40;;
68579;SDS011;55555;52.136;5.424;2022-12-18T16:54:35;26.35;;;11.95;;
68579;SDS011;55555;52.136;5.424;2022-12-18T16:57:02;34.13;;;12.97;;
68579;SDS011;55555;52.136;5.424;2022-12-18T16:59:30;26.17;;;12.45;;
68579;SDS011;55555;52.136;5.424;2022-12-18T17:02:04;25.83;;;11.93;;
68579;SDS011;55555;52.136;5.424;2022-12-18T17:04:37;29.92;;;13.10;;
68579;SDS011;55555;52.136;5.424;2022-12-18T17:07:04;31.45;;;12.98;;
68579;SDS011;55555;52.136;5.424;2022-12-18T17:09:31;28.47;;;13.77;;
68579;SDS011;55555;52.136;5.424;2022-12-18T17:11:58;29.17;;;13.30;;
68579;SDS011;55555;52.136;5.424;2022-12-18T17:14:30;28.08;;;13.88;;
68579;SDS011;55555;52.136;5.424;2022-12-18T17:16:59;27.45;;;13.27;;
68579;SDS011;55555;52.136;5.424;2022-12-18T17:19:46;28.30;;;13.13;;
68579;SDS011;55555;52.136;5.424;2022-12-18T17:22:13;25.97;;;12.30;;
68579;SDS011;55555;52.136;5.424;2022-12-18T17:24:40;31.33;;;14.27;;